Aeroporto :
LOGIN :

Iscrizione | Disclaimer

   EN    FR    IT 

 










Sommario :    VFR   VFR Marginale   IFR   IFR Intensivo   IFR Molto Intensivo
Visibilità : 
Base nubi : 
>= 8 km
>= 3000ft
5 / 8 km
1000 / 3000 ft
1500m / 5 km
500 / 1000 ft
800 / 1500m
200 / 500 ft
< 800m
< 200 ft
Simboli :   Temporali  Nebbia  Neve Forte  Precipitazioni Forti  Vento > 20 kt
SIGMETs :   Varie  Temporali  Ghiacco  Turbolenza  Onda orograficha  Ceneri Vulcaniche






- Altitudine del aeroporto : 1276 ft
- Codice IATA : STR


EDDS - Stuttgart

ULTIMO METAR :
  • 190820Z VRB01KT CAVOK 15/11 Q1014 NOSIG

METARs OBSOLETI :
  • 190750Z VRB02KT CAVOK 14/10 Q1014 NOSIG
  • 190720Z 08003KT 030V130 CAVOK 13/10 Q1013 NOSIG
  • 190650Z VRB02KT CAVOK 13/10 Q1013 NOSIG
  • 190620Z VRB02KT CAVOK 11/10 Q1013 NOSIG
  • 190550Z VRB02KT CAVOK 09/08 Q1014 NOSIG

TAF TAF EDDS
Valido dal 19 a 06 ore il 20 a 06 ore UTC


190500Z 1906/2006 VRB03KT CAVOK
TEMPO 1907/1918 02005KT
PROB30
TEMPO 2002/2006 BKN012



MetMap, La meteo Aeronautica in un colpo d'occhio ! - Copyright ORBIFLY Dicembre 2007 - Disclaimer

ORBIFLY MET'MAP TEAM :

Programmazione e sviluppo : Alexandra Zaïnal
Concezione : Baudouin d'Aumeries
Aiuto per la programmazione : Marc-Olivier Méhu
Supporto tecnico e logistico : Manuel Goepfert
Aiuto per la traduzione : Arnaldo La Scala

Contatto : metmap@orbifly.com




FONTI E CREDITI :

   NOAA